createdAt,value
2022-09-05T00:00:45.613Z,97435.09
2022-09-05T00:06:02.468Z,97425.84
2022-09-05T00:11:40.868Z,97443.19
2022-09-05T00:16:50.135Z,97438.84
2022-09-05T00:24:25.768Z,97433.31
2022-09-05T00:27:36.263Z,97448.88
2022-09-05T00:32:51.408Z,97452.09
2022-09-05T00:37:49.483Z,97454.81
2022-09-05T00:42:45.926Z,97448.53
2022-09-05T00:47:52.829Z,97443.53
2022-09-05T00:53:06.855Z,97442.78
2022-09-05T00:58:26.980Z,97441.31
2022-09-05T01:03:54.385Z,97442.53
2022-09-05T01:09:10.933Z,97419.38
2022-09-05T01:14:28.927Z,97423.84
2022-09-05T01:19:42.255Z,97425.59
2022-09-05T01:24:55.184Z,97418.84
2022-09-05T01:29:57.846Z,97426.66
2022-09-05T01:35:26.831Z,97431.94
2022-09-05T01:40:30.625Z,97430.94
2022-09-05T01:45:39.331Z,97432.59
2022-09-05T01:50:56.400Z,97427.75
2022-09-05T01:56:22.071Z,97428.00
2022-09-05T02:01:32.575Z,97428.69
2022-09-05T02:06:46.054Z,97421.44
2022-09-05T02:11:46.906Z,97423.88
2022-09-05T02:16:46.813Z,97426.63
2022-09-05T02:21:56.774Z,97424.28
2022-09-05T02:27:12.540Z,97423.56
2022-09-05T02:32:43.199Z,97421.50
2022-09-05T02:38:51.108Z,97411.47
2022-09-05T02:45:24.240Z,97413.16
2022-09-05T02:48:48.230Z,97418.44
2022-09-05T02:57:38.795Z,97415.66
2022-09-05T02:59:31.010Z,97406.88
2022-09-05T03:04:44.262Z,97415.22
2022-09-05T03:10:02.998Z,97413.84
2022-09-05T03:15:45.276Z,97420.09
2022-09-05T03:21:43.384Z,97413.16
2022-09-05T03:27:16.032Z,97421.94
2022-09-05T03:32:52.811Z,97411.47
2022-09-05T03:38:47.336Z,97420.69
2022-09-05T03:44:14.009Z,97408.16
2022-09-05T03:53:11.455Z,97413.00
2022-09-05T03:57:23.884Z,97416.34
2022-09-05T04:01:34.250Z,97418.16
2022-09-05T04:08:26.761Z,97420.09
2022-09-05T04:11:48.593Z,97420.09
2022-09-05T04:16:52.401Z,97419.56
2022-09-05T04:21:58.736Z,97424.84
2022-09-05T04:27:16.958Z,97421.25
2022-09-05T04:32:29.661Z,97432.34
2022-09-05T04:37:48.107Z,97435.97
2022-09-05T04:42:44.181Z,97439.31
2022-09-05T04:47:44.763Z,97443.34
2022-09-05T04:53:01.057Z,97449.03
2022-09-05T04:58:01.356Z,97445.44
2022-09-05T05:06:18.136Z,97457.13
2022-09-05T05:08:37.876Z,97455.59
2022-09-05T05:17:57.528Z,97466.31
2022-09-05T05:19:17.067Z,97474.25
2022-09-05T05:24:21.644Z,97482.03
2022-09-05T05:29:25.388Z,97479.59
2022-09-05T05:34:26.063Z,97491.41
2022-09-05T05:39:27.038Z,97491.00
2022-09-05T05:44:28.966Z,97497.56
2022-09-05T05:49:46.100Z,97503.84
2022-09-05T05:54:51.156Z,97505.66
2022-09-05T06:00:27.399Z,97508.97
2022-09-05T06:05:59.259Z,97519.16
2022-09-05T06:15:06.398Z,97520.97
2022-09-05T06:17:51.180Z,97518.75
2022-09-05T06:23:33.463Z,97517.09
2022-09-05T06:28:53.683Z,97515.00
2022-09-05T06:34:04.301Z,97516.66
2022-09-05T06:39:14.280Z,97513.88
2022-09-05T06:44:52.499Z,97518.16
2022-09-05T06:50:24.368Z,97502.53
2022-09-05T06:56:03.920Z,97526.09
2022-09-05T07:01:00.174Z,97516.44
2022-09-05T07:06:01.709Z,97506.41
2022-09-05T07:11:15.530Z,97520.34
2022-09-05T07:16:26.494Z,97530.03
2022-09-05T07:21:43.139Z,97531.72
2022-09-05T07:26:52.202Z,97528.38
2022-09-05T07:31:53.522Z,97529.69
2022-09-05T07:37:14.256Z,97542.94
2022-09-05T07:42:20.704Z,97548.66
2022-09-05T07:47:23.275Z,97553.84
2022-09-05T07:56:51.807Z,97556.72
2022-09-05T07:57:51.617Z,97558.38
2022-09-05T08:02:50.257Z,97565.88
2022-09-05T08:07:51.668Z,97559.34
2022-09-05T08:13:24.307Z,97564.56
2022-09-05T08:18:16.402Z,97565.84
2022-09-05T08:23:33.030Z,97560.91
2022-09-05T08:28:39.149Z,97561.00
2022-09-05T08:33:37.616Z,97566.56
2022-09-05T08:38:40.896Z,97566.59
2022-09-05T08:46:35.198Z,97572.59
2022-09-05T08:49:39.423Z,97555.09
2022-09-05T08:54:43.440Z,97560.13
2022-09-05T09:00:14.354Z,97568.75
2022-09-05T09:05:14.889Z,97553.69
2022-09-05T09:10:29.714Z,97552.03
2022-09-05T09:15:33.898Z,97545.06
2022-09-05T09:20:45.438Z,97556.00
2022-09-05T09:25:45.969Z,97543.63
2022-09-05T09:30:49.043Z,97535.06
2022-09-05T09:35:54.743Z,97536.34
2022-09-05T09:41:40.843Z,97530.56
2022-09-05T09:46:44.633Z,97535.22
2022-09-05T09:52:02.446Z,97535.13
2022-09-05T09:57:33.357Z,97532.63
2022-09-05T10:09:07.912Z,97532.38
2022-09-05T10:10:51.342Z,97530.38
2022-09-05T10:15:09.095Z,97528.59
2022-09-05T10:21:16.597Z,97528.00
2022-09-05T10:26:57.582Z,97513.38
2022-09-05T10:35:04.927Z,97511.09
2022-09-05T10:37:15.980Z,97518.28
2022-09-05T10:42:16.739Z,97521.56
2022-09-05T10:47:28.575Z,97519.91
2022-09-05T10:52:36.720Z,97513.03
2022-09-05T10:57:41.845Z,97505.75
2022-09-05T11:02:45.783Z,97505.63
2022-09-05T11:07:58.937Z,97499.66
2022-09-05T11:13:23.882Z,97487.38
2022-09-05T11:18:56.299Z,97473.22
2022-09-05T11:23:57.285Z,97465.56
2022-09-05T11:29:00.374Z,97460.19
2022-09-05T11:39:59.041Z,97440.03
2022-09-05T11:41:07.997Z,97451.66
2022-09-05T11:46:44.230Z,97453.13
2022-09-05T11:52:42.171Z,97454.19
2022-09-05T11:58:25.182Z,97449.81
2022-09-05T12:04:09.912Z,97451.38
2022-09-05T12:09:26.982Z,97456.25
2022-09-05T12:14:44.130Z,97449.06
2022-09-05T12:20:02.808Z,97442.34
2022-09-05T12:26:26.795Z,97442.97
2022-09-05T12:30:57.097Z,97430.09
2022-09-05T12:40:30.200Z,97432.59
2022-09-05T12:41:40.698Z,97421.19
2022-09-05T12:46:58.080Z,97422.25
2022-09-05T12:52:20.249Z,97416.25
2022-09-05T13:02:45.376Z,97401.41
2022-09-05T13:03:13.477Z,97393.38
2022-09-05T13:08:04.895Z,97393.63
2022-09-05T13:14:52.606Z,97387.91
2022-09-05T13:18:23.553Z,97382.84
2022-09-05T13:23:25.146Z,97374.06
2022-09-05T13:28:23.218Z,97358.75
2022-09-05T13:38:10.557Z,97353.97
2022-09-05T13:38:56.779Z,97361.28
2022-09-05T13:43:51.071Z,97355.19
2022-09-05T13:54:47.596Z,97344.84
2022-09-05T14:00:28.388Z,97349.81
2022-09-05T14:05:37.272Z,97336.06
2022-09-05T14:10:57.071Z,97330.63
2022-09-05T14:16:00.215Z,97326.09
2022-09-05T14:21:19.543Z,97311.22
2022-09-05T14:26:24.769Z,97311.16
2022-09-05T14:35:51.558Z,97311.59
2022-09-05T14:37:39.023Z,97302.47
2022-09-05T14:42:33.024Z,97291.84
2022-09-05T14:47:59.843Z,97298.09
2022-09-05T15:02:58.535Z,97288.91
2022-09-05T15:12:14.507Z,97276.47
2022-09-05T15:14:27.642Z,97272.38
2022-09-05T15:20:05.228Z,97274.41
2022-09-05T15:25:17.297Z,97267.75
2022-09-05T15:30:20.664Z,97262.16
2022-09-05T15:35:19.760Z,97269.34
2022-09-05T15:40:22.575Z,97266.13
2022-09-05T15:45:26.250Z,97267.97
2022-09-05T15:50:26.309Z,97262.09
2022-09-05T15:55:24.915Z,97252.41
2022-09-05T16:00:41.944Z,97253.97
2022-09-05T16:10:46.083Z,97255.78
2022-09-05T16:11:33.962Z,97257.66
2022-09-05T16:20:53.090Z,97243.91
2022-09-05T16:23:24.445Z,97240.59
2022-09-05T16:26:47.669Z,97229.78
2022-09-05T16:31:53.548Z,97229.78
2022-09-05T16:37:08.136Z,97225.59
2022-09-05T16:42:15.087Z,97217.16
2022-09-05T16:47:22.293Z,97213.88
2022-09-05T16:52:17.805Z,97219.25
2022-09-05T16:57:18.400Z,97216.94
2022-09-05T17:02:15.863Z,97213.78
2022-09-05T17:07:17.381Z,97213.22
2022-09-05T17:12:21.414Z,97216.72
2022-09-05T17:18:19.103Z,97212.66
2022-09-05T17:29:17.526Z,97214.94
2022-09-05T17:29:25.496Z,97213.94
2022-09-05T17:33:21.519Z,97212.72
2022-09-05T17:39:00.504Z,97208.25
2022-09-05T17:44:07.413Z,97202.59
2022-09-05T17:49:18.315Z,97211.13
2022-09-05T17:54:29.128Z,97207.72
2022-09-05T17:59:28.888Z,97213.59
2022-09-05T18:04:47.816Z,97222.25
2022-09-05T18:10:12.705Z,97226.81
2022-09-05T18:15:16.699Z,97213.66
2022-09-05T18:20:18.180Z,97217.97
2022-09-05T18:25:28.495Z,97226.34
2022-09-05T18:35:38.312Z,97227.72
2022-09-05T18:40:45.958Z,97229.34
2022-09-05T18:45:53.144Z,97236.34
2022-09-05T18:50:50.926Z,97241.69
2022-09-05T18:56:12.843Z,97247.03
2022-09-05T19:01:31.628Z,97236.22
2022-09-05T19:06:36.281Z,97231.91
2022-09-05T19:11:37.724Z,97236.72
2022-09-05T19:16:50.646Z,97237.56
2022-09-05T19:21:51.784Z,97236.38
2022-09-05T19:29:45.862Z,97240.03
2022-09-05T19:36:54.024Z,97231.88
2022-09-05T19:37:44.737Z,97233.56
2022-09-05T19:47:34.075Z,97233.50
2022-09-05T19:48:20.517Z,97225.69
2022-09-05T19:53:17.331Z,97221.38
2022-09-05T19:58:20.216Z,97223.69
2022-09-05T20:03:21.722Z,97226.94
2022-09-05T20:08:16.061Z,97229.78
2022-09-05T20:13:23.563Z,97228.44
2022-09-05T20:18:24.707Z,97223.13
2022-09-05T20:23:19.840Z,97229.44
2022-09-05T20:28:18.117Z,97222.00
2022-09-05T20:33:23.395Z,97233.41
2022-09-05T20:43:24.766Z,97235.13
2022-09-05T20:44:04.410Z,97245.13
2022-09-05T20:54:14.691Z,97240.75
2022-09-05T20:54:32.034Z,97252.38
2022-09-05T20:59:35.920Z,97246.75
2022-09-05T21:04:33.917Z,97240.91
2022-09-05T21:09:29.450Z,97241.75
2022-09-05T21:14:27.789Z,97233.13
2022-09-05T21:19:29.079Z,97236.16
2022-09-05T21:24:25.552Z,97233.59
2022-09-05T21:29:27.547Z,97223.09
2022-09-05T21:34:30.036Z,97233.94
2022-09-05T21:39:31.009Z,97239.78
2022-09-05T21:47:47.979Z,97236.53
2022-09-05T21:49:39.746Z,97249.69
2022-09-05T21:59:21.373Z,97232.88
2022-09-05T21:59:55.680Z,97219.97
2022-09-05T22:04:49.676Z,97229.31
2022-09-05T22:09:44.539Z,97225.53
2022-09-05T22:14:38.196Z,97220.41
2022-09-05T22:19:37.703Z,97224.34
2022-09-05T22:24:35.577Z,97221.25
2022-09-05T22:29:31.468Z,97228.91
2022-09-05T22:34:25.004Z,97241.84
2022-09-05T22:39:19.463Z,97238.69
2022-09-05T22:44:34.277Z,97229.91
2022-09-05T22:49:27.646Z,97227.38
2022-09-05T22:54:21.104Z,97214.72
2022-09-05T22:59:16.773Z,97219.66
2022-09-05T23:04:11.611Z,97217.75
2022-09-05T23:09:05.561Z,97215.06
2022-09-05T23:13:58.900Z,97222.34
2022-09-05T23:18:52.209Z,97221.94
2022-09-05T23:23:48.130Z,97206.34
2022-09-05T23:28:43.793Z,97215.44
2022-09-05T23:33:37.308Z,97207.13
2022-09-05T23:38:31.533Z,97203.63
2022-09-05T23:43:27.035Z,97214.44
2022-09-05T23:48:20.425Z,97200.00
2022-09-05T23:53:13.802Z,97190.53
2022-09-05T23:58:07.261Z,97198.94
